createdAt,value
2019-04-20T00:00:48.311Z,2.00
2019-04-20T00:01:44.860Z,2.10
2019-04-20T00:02:44.048Z,2.30
2019-04-20T00:03:45.585Z,2.00
2019-04-20T00:04:43.143Z,2.00
2019-04-20T00:05:43.431Z,2.30
2019-04-20T00:06:46.710Z,2.10
2019-04-20T00:07:43.845Z,2.40
2019-04-20T00:08:44.263Z,2.40
2019-04-20T00:09:50.188Z,2.30
2019-04-20T00:10:54.306Z,2.40
2019-04-20T00:11:53.609Z,2.20
2019-04-20T00:12:59.539Z,2.30
2019-04-20T00:13:52.540Z,2.50
2019-04-20T00:14:44.085Z,2.20
2019-04-20T00:15:43.024Z,2.50
2019-04-20T00:16:42.494Z,2.40
2019-04-20T00:17:49.632Z,2.20
2019-04-20T00:18:48.868Z,2.30
2019-04-20T00:19:47.564Z,2.40
2019-04-20T00:20:43.821Z,2.20
2019-04-20T00:21:47.043Z,2.30
2019-04-20T00:22:48.624Z,2.30
2019-04-20T00:23:46.814Z,2.40
2019-04-20T00:24:43.945Z,2.40
2019-04-20T00:25:53.552Z,2.50
2019-04-20T00:27:08.472Z,2.30
2019-04-20T00:28:10.930Z,2.50
2019-04-20T00:29:00.189Z,2.30
2019-04-20T00:30:00.327Z,2.30
2019-04-20T00:32:06.373Z,2.20
2019-04-20T00:33:07.325Z,2.10
2019-04-20T00:34:07.931Z,2.10
2019-04-20T00:34:56.302Z,2.30
2019-04-20T00:35:55.293Z,2.00
2019-04-20T00:36:56.179Z,2.00
2019-04-20T00:37:55.270Z,2.00
2019-04-20T00:38:59.681Z,2.30
2019-04-20T00:39:57.770Z,2.00
2019-04-20T00:40:59.782Z,2.20
2019-04-20T00:42:03.775Z,2.20
2019-04-20T00:42:58.769Z,2.10
2019-04-20T00:43:57.761Z,2.30
2019-04-20T00:45:05.632Z,2.10
2019-04-20T00:46:04.635Z,2.10
2019-04-20T00:47:08.521Z,2.00
2019-04-20T00:48:05.554Z,1.90
2019-04-20T00:49:06.895Z,2.10
2019-04-20T00:50:09.209Z,2.00
2019-04-20T00:51:17.321Z,2.00
2019-04-20T00:52:24.309Z,2.10
2019-04-20T00:53:06.790Z,2.10
2019-04-20T00:53:58.800Z,1.80
2019-04-20T00:54:55.910Z,2.10
2019-04-20T00:55:55.111Z,2.10
2019-04-20T00:57:07.887Z,2.20
2019-04-20T00:58:03.707Z,2.00
2019-04-20T00:59:09.159Z,2.00
2019-04-20T01:00:17.587Z,1.90
2019-04-20T01:01:17.006Z,2.00
2019-04-20T01:03:24.877Z,2.30
2019-04-20T01:04:25.447Z,2.00
2019-04-20T01:05:25.589Z,1.90
2019-04-20T01:06:28.823Z,2.00
2019-04-20T01:07:20.749Z,1.90
2019-04-20T01:08:10.052Z,1.90
2019-04-20T01:09:07.917Z,1.80
2019-04-20T01:10:08.961Z,1.90
2019-04-20T01:11:08.237Z,2.00
2019-04-20T01:12:12.509Z,1.90
2019-04-20T01:13:13.990Z,1.90
2019-04-20T01:14:12.293Z,1.90
2019-04-20T01:15:13.164Z,2.00
2019-04-20T01:16:21.329Z,2.00
2019-04-20T01:17:12.067Z,2.20
2019-04-20T01:18:10.746Z,2.10
2019-04-20T01:19:08.818Z,2.20
2019-04-20T01:20:07.799Z,1.90
2019-04-20T01:21:13.858Z,2.10
2019-04-20T01:22:13.576Z,1.80
2019-04-20T01:23:13.915Z,2.00
2019-04-20T01:24:11.380Z,2.00
2019-04-20T01:25:17.169Z,2.10
2019-04-20T01:26:13.034Z,2.10
2019-04-20T01:27:24.951Z,2.10
2019-04-20T01:28:27.859Z,2.10
2019-04-20T01:29:20.167Z,2.00
2019-04-20T01:30:17.203Z,2.00
2019-04-20T01:31:19.863Z,2.10
2019-04-20T01:32:20.897Z,2.10
2019-04-20T01:34:37.913Z,1.90
2019-04-20T01:35:39.167Z,2.10
2019-04-20T01:36:40.876Z,2.40
2019-04-20T01:37:34.275Z,2.10
2019-04-20T01:38:34.653Z,2.20
2019-04-20T01:39:30.997Z,2.20
2019-04-20T01:40:21.254Z,2.40
2019-04-20T01:41:20.383Z,2.10
2019-04-20T01:42:21.381Z,2.00
2019-04-20T01:43:20.624Z,2.20
2019-04-20T01:44:26.134Z,2.10
2019-04-20T01:45:27.397Z,2.10
2019-04-20T01:46:24.019Z,1.90
2019-04-20T01:47:23.898Z,2.00
2019-04-20T01:48:27.462Z,2.00
2019-04-20T01:49:25.374Z,2.00
2019-04-20T01:50:26.087Z,2.10
2019-04-20T01:51:27.184Z,2.20
2019-04-20T01:52:26.891Z,2.30
2019-04-20T01:53:38.451Z,2.30
2019-04-20T01:54:42.153Z,2.30
2019-04-20T01:55:38.666Z,2.20
2019-04-20T01:56:36.206Z,2.10
2019-04-20T01:57:26.249Z,2.10
2019-04-20T01:58:42.178Z,2.10
2019-04-20T01:59:31.983Z,2.20
2019-04-20T02:00:28.357Z,2.00
2019-04-20T02:01:27.186Z,2.20
2019-04-20T02:02:23.228Z,2.10
2019-04-20T02:03:22.786Z,2.00
2019-04-20T02:05:35.868Z,2.10
2019-04-20T02:06:41.905Z,2.10
2019-04-20T02:07:38.761Z,2.20
2019-04-20T02:08:34.298Z,2.00
2019-04-20T02:09:34.412Z,1.90
2019-04-20T02:10:41.736Z,2.10
2019-04-20T02:11:38.424Z,1.90
2019-04-20T02:12:37.592Z,2.10
2019-04-20T02:13:42.551Z,2.10
2019-04-20T02:14:42.519Z,2.00
2019-04-20T02:15:40.376Z,2.00
2019-04-20T02:16:40.782Z,2.00
2019-04-20T02:17:40.766Z,1.90
2019-04-20T02:18:44.104Z,2.00
2019-04-20T02:19:52.169Z,2.00
2019-04-20T02:20:54.663Z,2.00
2019-04-20T02:21:54.215Z,1.90
2019-04-20T02:22:51.810Z,1.90
2019-04-20T02:23:44.120Z,2.20
2019-04-20T02:24:34.075Z,2.00
2019-04-20T02:25:34.161Z,2.20
2019-04-20T02:26:32.925Z,1.90
2019-04-20T02:27:40.629Z,2.20
2019-04-20T02:29:00.750Z,2.00
2019-04-20T02:29:58.204Z,2.10
2019-04-20T02:32:17.601Z,2.10
2019-04-20T02:33:17.187Z,2.10
2019-04-20T02:34:04.091Z,2.00
2019-04-20T02:35:13.732Z,2.00
2019-04-20T02:36:24.742Z,2.00
2019-04-20T02:37:16.268Z,2.20
2019-04-20T02:38:12.171Z,2.00
2019-04-20T02:39:21.912Z,2.10
2019-04-20T02:43:09.482Z,2.00
2019-04-20T02:45:17.441Z,2.20
2019-04-20T02:45:57.751Z,2.10
2019-04-20T02:47:16.210Z,2.10
2019-04-20T02:48:10.090Z,2.00
2019-04-20T02:49:10.068Z,1.90
2019-04-20T02:50:07.515Z,2.00
2019-04-20T02:51:06.613Z,2.00
2019-04-20T02:52:02.981Z,2.10
2019-04-20T02:53:21.884Z,1.90
2019-04-20T02:54:14.937Z,2.00
2019-04-20T02:55:09.411Z,2.10
2019-04-20T02:56:12.526Z,2.00
2019-04-20T02:57:17.866Z,2.00
2019-04-20T02:58:00.430Z,1.90
2019-04-20T02:59:25.113Z,1.90
2019-04-20T03:00:05.428Z,1.90
2019-04-20T03:01:02.261Z,2.00
2019-04-20T03:01:51.768Z,2.00
2019-04-20T03:02:45.849Z,2.00
2019-04-20T03:03:41.460Z,1.90
2019-04-20T03:04:42.507Z,2.20
2019-04-20T03:05:43.198Z,1.90
2019-04-20T03:07:00.997Z,1.70
2019-04-20T03:07:54.600Z,1.90
2019-04-20T03:08:59.493Z,2.00
2019-04-20T03:09:50.501Z,1.90
2019-04-20T03:11:06.263Z,1.90
2019-04-20T03:12:04.529Z,2.10
2019-04-20T03:12:59.729Z,1.80
2019-04-20T03:13:53.171Z,1.90
2019-04-20T03:14:50.303Z,1.80
2019-04-20T03:15:56.449Z,1.90
2019-04-20T03:16:53.166Z,1.80
2019-04-20T03:18:00.152Z,1.90
2019-04-20T03:18:51.623Z,1.70
2019-04-20T03:19:51.671Z,1.80
2019-04-20T03:20:53.407Z,2.00
2019-04-20T03:22:00.385Z,1.80
2019-04-20T03:23:17.715Z,1.90
2019-04-20T03:23:59.790Z,2.00
2019-04-20T03:24:54.110Z,1.70
2019-04-20T03:25:55.469Z,1.80
2019-04-20T03:26:55.756Z,1.90
2019-04-20T03:27:51.600Z,1.70
2019-04-20T03:28:53.238Z,1.80
2019-04-20T03:29:52.344Z,1.70
2019-04-20T03:31:36.550Z,1.90
2019-04-20T03:34:15.227Z,1.80
2019-04-20T03:35:20.922Z,1.80
2019-04-20T03:36:09.297Z,1.70
2019-04-20T03:36:59.358Z,1.70
2019-04-20T03:38:07.530Z,1.70
2019-04-20T03:38:53.828Z,1.80
2019-04-20T03:39:50.346Z,1.70
2019-04-20T03:40:45.265Z,1.70
2019-04-20T03:41:39.429Z,1.80
2019-04-20T03:42:33.151Z,1.80
2019-04-20T03:43:32.873Z,1.70
2019-04-20T03:44:34.197Z,1.70
2019-04-20T03:45:42.698Z,1.70
2019-04-20T03:46:41.901Z,1.70
2019-04-20T03:47:43.740Z,1.70
2019-04-20T03:48:46.733Z,1.50
2019-04-20T03:49:54.918Z,1.70
2019-04-20T03:50:50.809Z,1.70
2019-04-20T03:51:55.938Z,1.80
2019-04-20T03:52:57.991Z,1.60
2019-04-20T03:53:52.338Z,1.70
2019-04-20T03:54:43.580Z,1.60
2019-04-20T03:55:51.360Z,1.50
2019-04-20T03:56:49.453Z,1.60
2019-04-20T03:57:51.660Z,1.80
2019-04-20T03:58:47.201Z,1.70
2019-04-20T03:59:56.111Z,1.70
2019-04-20T04:00:50.708Z,1.60
2019-04-20T04:02:17.073Z,1.50
2019-04-20T04:03:02.987Z,1.50
2019-04-20T04:04:01.729Z,1.50
2019-04-20T04:04:49.474Z,1.50
2019-04-20T04:05:46.953Z,1.50
2019-04-20T04:06:39.304Z,1.70
2019-04-20T04:07:41.468Z,1.60
2019-04-20T04:08:59.946Z,1.50
2019-04-20T04:09:40.155Z,1.60
2019-04-20T04:10:50.175Z,1.40
2019-04-20T04:11:48.883Z,1.70
2019-04-20T04:12:39.554Z,1.80
2019-04-20T04:13:33.605Z,1.60
2019-04-20T04:14:32.487Z,1.50
2019-04-20T04:15:31.771Z,1.50
2019-04-20T04:16:37.249Z,1.60
2019-04-20T04:17:38.390Z,1.70
2019-04-20T04:18:38.673Z,1.60
2019-04-20T04:19:36.820Z,1.60
2019-04-20T04:20:40.729Z,1.60
2019-04-20T04:21:49.864Z,1.60
2019-04-20T04:22:50.336Z,1.50
2019-04-20T04:23:48.963Z,1.60
2019-04-20T04:24:45.158Z,1.50
2019-04-20T04:25:51.922Z,1.60
2019-04-20T04:26:48.867Z,1.50
2019-04-20T04:27:54.905Z,1.60
2019-04-20T04:28:49.048Z,1.50
2019-04-20T04:29:50.720Z,1.50
2019-04-20T04:30:53.429Z,1.40
2019-04-20T04:32:01.366Z,1.50
2019-04-20T04:33:29.352Z,1.40
2019-04-20T04:33:55.736Z,1.40
2019-04-20T04:34:48.632Z,1.50
2019-04-20T04:36:53.679Z,1.50
2019-04-20T04:37:50.291Z,1.70
2019-04-20T04:38:53.683Z,1.40
2019-04-20T04:40:01.009Z,1.50
2019-04-20T04:41:01.880Z,1.50
2019-04-20T04:42:01.850Z,1.60
2019-04-20T04:42:52.621Z,1.40
2019-04-20T04:43:49.741Z,1.50
2019-04-20T04:44:44.693Z,1.40
2019-04-20T04:45:33.671Z,1.40
2019-04-20T04:46:33.931Z,1.50
2019-04-20T04:47:32.696Z,1.50
2019-04-20T04:48:35.737Z,1.60
2019-04-20T04:49:39.320Z,1.40
2019-04-20T04:50:37.331Z,1.50
2019-04-20T04:51:42.603Z,1.50
2019-04-20T04:52:44.552Z,1.50
2019-04-20T04:53:44.256Z,1.40
2019-04-20T04:54:42.995Z,1.60
2019-04-20T04:55:41.955Z,1.50
2019-04-20T04:56:33.522Z,1.30
2019-04-20T04:57:32.592Z,1.40
2019-04-20T04:58:31.941Z,1.40
2019-04-20T04:59:31.688Z,1.50
2019-04-20T05:00:34.210Z,1.40
2019-04-20T05:01:33.732Z,1.50
2019-04-20T05:02:39.323Z,1.50
2019-04-20T05:03:54.061Z,1.70
2019-04-20T05:04:59.991Z,1.50
2019-04-20T05:05:48.663Z,1.30
2019-04-20T05:06:49.469Z,1.50
2019-04-20T05:07:43.452Z,1.50
2019-04-20T05:08:41.295Z,1.60
2019-04-20T05:09:32.167Z,1.40
2019-04-20T05:10:41.714Z,1.50
2019-04-20T05:11:32.043Z,1.50
2019-04-20T05:12:33.530Z,1.40
2019-04-20T05:13:36.840Z,1.50
2019-04-20T05:14:45.137Z,1.40
2019-04-20T05:15:46.139Z,1.60
2019-04-20T05:16:51.291Z,1.50
2019-04-20T05:17:53.259Z,1.40
2019-04-20T05:18:57.873Z,1.50
2019-04-20T05:19:53.062Z,1.60
2019-04-20T05:20:55.786Z,1.50
2019-04-20T05:22:00.845Z,1.40
2019-04-20T05:22:54.880Z,1.50
2019-04-20T05:23:45.758Z,1.50
2019-04-20T05:24:53.607Z,1.50
2019-04-20T05:25:56.917Z,1.50
2019-04-20T05:26:55.436Z,1.60
2019-04-20T05:27:52.534Z,1.70
2019-04-20T05:28:43.072Z,1.50
2019-04-20T05:29:34.956Z,1.60
2019-04-20T05:30:34.445Z,1.50
2019-04-20T05:31:41.396Z,1.50
2019-04-20T05:32:42.774Z,1.40
2019-04-20T05:33:57.145Z,1.50
2019-04-20T05:34:59.101Z,1.50
2019-04-20T05:35:54.532Z,1.50
2019-04-20T05:36:51.809Z,1.60
2019-04-20T05:38:02.912Z,1.60
2019-04-20T05:38:55.749Z,1.50
2019-04-20T05:39:51.984Z,1.60
2019-04-20T05:40:50.037Z,1.40
2019-04-20T05:41:56.250Z,1.60
2019-04-20T05:42:52.363Z,1.60
2019-04-20T05:43:48.439Z,1.70
2019-04-20T05:45:07.567Z,1.60
2019-04-20T05:45:45.412Z,1.50
2019-04-20T05:46:56.608Z,1.60
2019-04-20T05:47:48.237Z,1.70
2019-04-20T05:48:50.710Z,1.40
2019-04-20T05:49:50.124Z,1.60
2019-04-20T05:50:54.887Z,1.50
2019-04-20T05:51:56.027Z,1.70
2019-04-20T05:52:59.851Z,1.40
2019-04-20T05:53:54.788Z,1.50
2019-04-20T05:54:51.439Z,1.60
2019-04-20T05:55:53.198Z,1.50
2019-04-20T05:56:50.135Z,1.50
2019-04-20T05:57:56.743Z,1.70
2019-04-20T05:58:52.065Z,1.60
2019-04-20T05:59:55.706Z,1.70
2019-04-20T06:00:57.502Z,1.70
2019-04-20T06:01:57.671Z,1.60
2019-04-20T06:02:51.250Z,1.50
2019-04-20T06:03:51.257Z,1.50
2019-04-20T06:05:08.670Z,1.60
2019-04-20T06:05:58.069Z,1.40
2019-04-20T06:06:56.441Z,1.40
2019-04-20T06:07:56.591Z,1.50
2019-04-20T06:08:59.534Z,1.60
2019-04-20T06:09:57.237Z,1.40
2019-04-20T06:10:52.253Z,1.20
2019-04-20T06:12:04.364Z,1.50
2019-04-20T06:13:01.567Z,1.50
2019-04-20T06:13:44.430Z,1.50
2019-04-20T06:14:48.234Z,1.50
2019-04-20T06:15:46.361Z,1.60
2019-04-20T06:16:59.801Z,1.70
2019-04-20T06:17:49.398Z,1.40
2019-04-20T06:18:49.648Z,1.50
2019-04-20T06:19:51.959Z,1.50
2019-04-20T06:20:52.619Z,1.30
2019-04-20T06:21:57.647Z,1.40
2019-04-20T06:22:59.968Z,1.50
2019-04-20T06:23:56.695Z,1.60
2019-04-20T06:25:00.915Z,1.30
2019-04-20T06:26:09.796Z,1.40
2019-04-20T06:27:55.378Z,1.50
2019-04-20T06:28:46.194Z,1.50
2019-04-20T06:29:53.816Z,1.50
2019-04-20T06:30:49.472Z,1.50
2019-04-20T06:31:52.035Z,1.40
2019-04-20T06:32:52.299Z,1.40
2019-04-20T06:34:12.959Z,1.50
2019-04-20T06:34:50.103Z,1.20
2019-04-20T06:36:09.304Z,1.40
2019-04-20T06:38:00.617Z,1.30
2019-04-20T06:39:02.687Z,1.60
2019-04-20T06:39:55.873Z,1.60
2019-04-20T06:41:02.391Z,1.50
2019-04-20T06:42:48.315Z,1.50
2019-04-20T06:42:53.045Z,1.50
2019-04-20T06:44:08.467Z,1.20
2019-04-20T06:44:50.867Z,1.40
2019-04-20T06:45:58.834Z,1.40
2019-04-20T06:46:58.671Z,1.50
2019-04-20T06:48:52.325Z,1.30
2019-04-20T06:49:51.593Z,1.40
2019-04-20T06:50:53.040Z,1.30
2019-04-20T06:51:54.266Z,1.40
2019-04-20T06:52:45.419Z,1.30
2019-04-20T06:53:49.219Z,1.40
2019-04-20T06:54:48.287Z,1.40
2019-04-20T06:55:57.342Z,1.50
2019-04-20T06:56:57.130Z,1.50
2019-04-20T06:57:50.751Z,1.60
2019-04-20T06:58:49.935Z,1.50
2019-04-20T06:59:57.814Z,1.10
2019-04-20T07:00:46.538Z,1.10
2019-04-20T07:01:57.062Z,1.40
2019-04-20T07:03:05.869Z,1.10
2019-04-20T07:04:00.411Z,1.40
2019-04-20T07:05:50.501Z,1.30
2019-04-20T07:06:56.269Z,1.30
2019-04-20T07:07:54.576Z,1.10
2019-04-20T07:10:05.960Z,1.00
2019-04-20T07:11:08.830Z,1.30
2019-04-20T07:11:47.716Z,1.30
2019-04-20T07:12:45.098Z,1.20
2019-04-20T07:13:41.270Z,1.40
2019-04-20T07:14:54.223Z,1.30
2019-04-20T07:15:47.453Z,1.30
2019-04-20T07:16:51.222Z,1.10
2019-04-20T07:17:57.792Z,1.30
2019-04-20T07:18:59.315Z,1.20
2019-04-20T07:19:50.403Z,1.30
2019-04-20T07:20:55.625Z,1.20
2019-04-20T07:22:03.696Z,1.30
2019-04-20T07:22:54.343Z,1.20
2019-04-20T07:23:57.614Z,1.30
2019-04-20T07:25:54.378Z,1.00
2019-04-20T07:26:50.883Z,1.20
2019-04-20T07:27:53.792Z,1.40
2019-04-20T07:28:54.483Z,1.30
2019-04-20T07:29:47.450Z,1.20
2019-04-20T07:30:51.935Z,1.10
2019-04-20T07:31:49.954Z,1.10
2019-04-20T07:33:55.128Z,1.10
2019-04-20T07:34:51.664Z,1.10
2019-04-20T07:35:50.902Z,1.10
2019-04-20T07:37:06.609Z,1.10
2019-04-20T07:38:55.320Z,1.00
2019-04-20T07:39:53.715Z,1.30
2019-04-20T07:40:55.269Z,1.10
2019-04-20T07:41:56.898Z,1.20
2019-04-20T07:43:07.982Z,1.00
2019-04-20T07:44:55.437Z,1.00
2019-04-20T07:46:00.095Z,1.00
2019-04-20T07:47:58.689Z,1.00
2019-04-20T07:48:50.683Z,0.90
2019-04-20T07:49:52.354Z,1.30
2019-04-20T07:50:40.912Z,1.00
2019-04-20T07:51:35.554Z,1.10
2019-04-20T07:52:43.248Z,0.90
2019-04-20T07:53:50.917Z,1.20
2019-04-20T07:55:13.632Z,1.00
2019-04-20T07:55:53.901Z,0.90
2019-04-20T07:56:50.887Z,1.00
2019-04-20T07:57:41.896Z,1.10
2019-04-20T07:58:38.731Z,1.10
2019-04-20T07:59:47.007Z,1.10
2019-04-20T08:02:05.921Z,0.90
2019-04-20T08:02:57.278Z,1.00
2019-04-20T08:03:53.603Z,1.20
2019-04-20T08:04:48.562Z,0.90
2019-04-20T08:05:44.388Z,1.10
2019-04-20T08:06:37.866Z,1.00
2019-04-20T08:07:40.859Z,1.00
2019-04-20T08:08:43.965Z,1.10
2019-04-20T08:09:37.985Z,1.20
2019-04-20T08:10:51.083Z,1.00
2019-04-20T08:11:56.683Z,1.10
2019-04-20T08:12:56.914Z,1.30
2019-04-20T08:13:51.389Z,1.00
2019-04-20T08:14:56.812Z,0.90
2019-04-20T08:17:13.801Z,0.90
2019-04-20T08:18:24.342Z,1.30
2019-04-20T08:18:55.465Z,1.10
2019-04-20T08:19:45.486Z,1.00
2019-04-20T08:20:52.947Z,1.20
2019-04-20T08:21:52.967Z,1.10
2019-04-20T08:22:51.670Z,1.00
2019-04-20T08:23:51.853Z,1.00
2019-04-20T08:24:45.348Z,0.80
2019-04-20T08:25:44.561Z,0.90
2019-04-20T08:26:34.490Z,0.90
2019-04-20T08:27:30.024Z,1.10
2019-04-20T08:28:36.293Z,1.20
2019-04-20T08:29:47.514Z,1.30
2019-04-20T08:30:46.591Z,0.90
2019-04-20T08:31:44.932Z,0.90
2019-04-20T08:32:48.317Z,0.90
2019-04-20T08:34:04.847Z,0.90
2019-04-20T08:34:56.633Z,0.70
2019-04-20T08:35:56.594Z,1.00
2019-04-20T08:36:51.250Z,1.00
2019-04-20T08:38:13.248Z,0.80
2019-04-20T08:39:57.396Z,1.00
2019-04-20T08:40:47.854Z,1.10
2019-04-20T08:41:56.490Z,0.90
2019-04-20T08:43:02.476Z,1.00
2019-04-20T08:43:53.842Z,0.90
2019-04-20T08:45:52.757Z,1.30
2019-04-20T08:46:59.403Z,1.30
2019-04-20T08:48:09.815Z,1.10
2019-04-20T08:48:52.023Z,1.00
2019-04-20T08:49:57.045Z,1.00
2019-04-20T08:50:53.319Z,0.90
2019-04-20T08:51:49.587Z,1.10
2019-04-20T08:53:53.527Z,0.90
2019-04-20T08:54:43.098Z,1.00
2019-04-20T08:55:41.388Z,1.00
2019-04-20T08:56:39.347Z,0.90
2019-04-20T08:57:31.177Z,0.90
2019-04-20T08:58:29.635Z,0.90
2019-04-20T08:59:28.938Z,1.00
2019-04-20T09:00:33.114Z,0.80
2019-04-20T09:01:32.702Z,1.00
2019-04-20T09:02:30.406Z,1.00
2019-04-20T09:03:31.730Z,0.90
2019-04-20T09:04:37.305Z,0.90
2019-04-20T09:05:44.942Z,0.80
2019-04-20T09:06:39.928Z,0.80
2019-04-20T09:07:33.239Z,1.00
2019-04-20T09:08:42.110Z,0.90
2019-04-20T09:09:49.175Z,1.20
2019-04-20T09:10:49.521Z,0.90
2019-04-20T09:11:49.602Z,0.90
2019-04-20T09:12:45.185Z,1.00
2019-04-20T09:13:36.321Z,1.00
2019-04-20T09:14:30.827Z,0.90
2019-04-20T09:15:29.868Z,0.90
2019-04-20T09:16:38.108Z,1.40
2019-04-20T09:17:35.581Z,1.00
2019-04-20T09:19:51.217Z,0.80
2019-04-20T09:20:50.654Z,1.00
2019-04-20T09:21:52.258Z,1.00
2019-04-20T09:22:49.439Z,1.00
2019-04-20T09:23:56.040Z,1.00
2019-04-20T09:25:16.083Z,0.90
2019-04-20T09:27:01.124Z,1.00
2019-04-20T09:27:48.795Z,0.90
2019-04-20T09:28:56.696Z,0.80
2019-04-20T09:30:00.576Z,0.90
2019-04-20T09:30:55.904Z,0.90
2019-04-20T09:31:52.104Z,0.80
2019-04-20T09:32:56.694Z,0.90
2019-04-20T09:33:58.239Z,1.00
2019-04-20T09:35:02.334Z,1.00
2019-04-20T09:35:57.661Z,1.20
2019-04-20T09:36:53.747Z,0.90
2019-04-20T09:38:01.825Z,0.90
2019-04-20T09:38:52.914Z,0.90
2019-04-20T09:40:02.384Z,0.80
2019-04-20T09:40:58.362Z,1.00
2019-04-20T09:41:59.738Z,0.80
2019-04-20T09:42:42.156Z,0.80
2019-04-20T09:43:41.159Z,0.90
2019-04-20T09:44:46.040Z,0.90
2019-04-20T09:45:45.966Z,0.90
2019-04-20T09:46:46.052Z,0.90
2019-04-20T09:47:46.490Z,0.90
2019-04-20T09:48:49.124Z,0.90
2019-04-20T09:51:16.866Z,1.70
2019-04-20T09:52:10.915Z,0.90
2019-04-20T09:53:10.039Z,1.10
2019-04-20T09:54:17.579Z,0.90
2019-04-20T09:55:10.747Z,1.00
2019-04-20T09:56:14.570Z,0.90
2019-04-20T09:57:17.472Z,0.90
2019-04-20T09:58:09.981Z,0.90
2019-04-20T09:59:16.874Z,0.90
2019-04-20T10:00:12.133Z,0.90
2019-04-20T10:01:12.399Z,0.80
2019-04-20T10:02:05.474Z,1.00
2019-04-20T10:02:55.158Z,0.80
2019-04-20T10:03:54.756Z,1.00
2019-04-20T10:04:55.496Z,0.90
2019-04-20T10:05:54.170Z,1.00
2019-04-20T10:06:55.241Z,0.90
2019-04-20T10:07:58.717Z,0.90
2019-04-20T10:08:58.259Z,0.90
2019-04-20T10:09:55.783Z,1.00
2019-04-20T10:10:54.412Z,0.80
2019-04-20T10:11:55.306Z,0.90
2019-04-20T10:12:54.224Z,1.00
2019-04-20T10:13:54.447Z,0.90
2019-04-20T10:14:57.498Z,1.20
2019-04-20T10:15:55.507Z,0.90
2019-04-20T10:16:54.005Z,0.90
2019-04-20T10:17:54.004Z,0.80
2019-04-20T10:18:55.303Z,0.90
2019-04-20T10:19:53.972Z,0.90
2019-04-20T10:21:01.997Z,0.70
2019-04-20T10:21:54.898Z,0.80
2019-04-20T10:22:54.354Z,1.00
2019-04-20T10:23:54.602Z,0.80
2019-04-20T10:24:55.459Z,0.90
2019-04-20T10:25:54.324Z,0.90
2019-04-20T10:26:54.613Z,0.90
2019-04-20T10:27:53.886Z,0.80
2019-04-20T10:28:55.195Z,0.80
2019-04-20T10:29:53.867Z,1.00
2019-04-20T10:30:54.747Z,1.00
2019-04-20T10:31:58.320Z,0.90
2019-04-20T10:32:55.763Z,1.00
2019-04-20T10:33:53.836Z,1.00
2019-04-20T10:34:54.842Z,1.00
2019-04-20T10:35:53.978Z,0.90
2019-04-20T10:36:53.788Z,1.20
2019-04-20T10:37:53.792Z,0.90
2019-04-20T10:38:54.830Z,0.70
2019-04-20T10:39:54.402Z,0.90
2019-04-20T10:41:04.428Z,1.00
2019-04-20T10:41:58.769Z,0.90
2019-04-20T10:42:55.186Z,0.90
2019-04-20T10:43:53.715Z,0.90
2019-04-20T10:44:55.875Z,0.90
2019-04-20T10:45:54.776Z,0.90
2019-04-20T10:46:53.691Z,0.90
2019-04-20T10:47:54.982Z,1.00
2019-04-20T10:48:56.041Z,0.90
2019-04-20T10:49:56.334Z,0.90
2019-04-20T10:50:54.801Z,0.90
2019-04-20T10:52:05.659Z,0.80
2019-04-20T10:52:54.066Z,0.80
2019-04-20T10:53:54.129Z,0.90
2019-04-20T10:54:54.390Z,0.90
2019-04-20T10:55:53.593Z,0.80
2019-04-20T10:56:53.569Z,0.90
2019-04-20T10:57:53.568Z,0.80
2019-04-20T10:58:53.862Z,0.80
2019-04-20T10:59:53.545Z,0.90
2019-04-20T11:00:53.574Z,0.90
2019-04-20T11:01:53.844Z,0.90
2019-04-20T11:02:53.517Z,0.90
2019-04-20T11:03:54.501Z,0.90
2019-04-20T11:04:54.702Z,0.90
2019-04-20T11:05:53.476Z,0.80
2019-04-20T11:06:54.475Z,0.90
2019-04-20T11:07:54.705Z,0.90
2019-04-20T11:08:53.435Z,1.00
2019-04-20T11:10:05.359Z,1.00
2019-04-20T11:11:05.028Z,0.80
2019-04-20T11:11:54.500Z,0.90
2019-04-20T11:12:53.393Z,0.90
2019-04-20T11:13:53.397Z,0.90
2019-04-20T11:14:54.460Z,1.10
2019-04-20T11:15:54.560Z,0.80
2019-04-20T11:16:54.119Z,1.00
2019-04-20T11:17:53.381Z,0.90
2019-04-20T11:18:53.630Z,0.80
2019-04-20T11:19:53.319Z,1.10
2019-04-20T11:20:53.320Z,0.90
2019-04-20T11:21:54.410Z,0.80
2019-04-20T11:23:04.388Z,1.00
2019-04-20T11:23:54.246Z,0.80
2019-04-20T11:24:54.300Z,0.80
2019-04-20T11:25:53.251Z,0.80
2019-04-20T11:26:54.122Z,0.80
2019-04-20T11:27:54.380Z,0.90
2019-04-20T11:28:53.250Z,0.70
2019-04-20T11:29:54.084Z,1.00
2019-04-20T11:30:54.250Z,0.90
2019-04-20T11:31:56.023Z,1.00
2019-04-20T11:32:53.966Z,0.80
2019-04-20T11:33:54.205Z,0.90
2019-04-20T11:34:53.336Z,1.00
2019-04-20T11:35:53.147Z,0.70
2019-04-20T11:36:53.129Z,0.80
2019-04-20T11:37:53.311Z,0.90
2019-04-20T11:38:54.337Z,1.20
2019-04-20T11:39:53.094Z,0.80
2019-04-20T11:41:03.842Z,0.80
2019-04-20T11:41:54.069Z,0.80
2019-04-20T11:42:53.372Z,1.00
2019-04-20T11:43:53.801Z,0.70
2019-04-20T11:44:53.042Z,0.80
2019-04-20T11:45:54.314Z,1.00
2019-04-20T11:46:53.012Z,0.80
2019-04-20T11:47:53.742Z,0.80
2019-04-20T11:48:52.994Z,0.80
2019-04-20T11:49:53.382Z,0.90
2019-04-20T11:50:53.589Z,0.90
2019-04-20T11:51:52.971Z,0.90
2019-04-20T11:52:53.141Z,0.80
2019-04-20T11:54:06.090Z,0.70
2019-04-20T11:54:52.924Z,0.80
2019-04-20T11:55:54.145Z,0.80
2019-04-20T11:56:53.263Z,0.90
2019-04-20T11:57:54.103Z,0.70
2019-04-20T11:58:53.169Z,0.90
2019-04-20T11:59:53.019Z,0.90
2019-04-20T12:01:01.213Z,0.90
2019-04-20T12:02:00.126Z,0.80
2019-04-20T12:02:56.893Z,0.70
2019-04-20T12:04:01.954Z,0.70
2019-04-20T12:05:07.561Z,0.90
2019-04-20T12:05:59.021Z,0.80
2019-04-20T12:06:54.903Z,0.80
2019-04-20T12:07:53.163Z,0.80
2019-04-20T12:08:52.775Z,0.80
2019-04-20T12:09:53.478Z,0.80
2019-04-20T12:10:57.561Z,0.90
2019-04-20T12:12:08.253Z,0.90
2019-04-20T12:12:55.633Z,0.90
2019-04-20T12:13:52.717Z,0.80
2019-04-20T12:14:52.704Z,1.00
2019-04-20T12:15:53.877Z,0.90
2019-04-20T12:16:53.392Z,0.90
2019-04-20T12:17:53.680Z,0.90
2019-04-20T12:18:52.657Z,0.80
2019-04-20T12:19:53.193Z,0.80
2019-04-20T12:20:52.695Z,0.90
2019-04-20T12:21:53.874Z,1.00
2019-04-20T12:22:52.697Z,0.80
2019-04-20T12:23:54.013Z,0.90
2019-04-20T12:25:02.823Z,0.90
2019-04-20T12:25:52.580Z,0.90
2019-04-20T12:26:52.574Z,1.00
2019-04-20T12:27:56.689Z,0.80
2019-04-20T12:28:53.826Z,0.70
2019-04-20T12:29:53.943Z,0.80
2019-04-20T12:30:55.926Z,0.70
2019-04-20T12:31:58.168Z,1.00
2019-04-20T12:32:58.544Z,0.90
2019-04-20T12:33:54.757Z,0.80
2019-04-20T12:34:52.492Z,0.80
2019-04-20T12:35:52.475Z,0.90
2019-04-20T12:36:53.280Z,0.90
2019-04-20T12:37:52.446Z,0.90
2019-04-20T12:38:53.152Z,0.80
2019-04-20T12:39:53.290Z,0.90
2019-04-20T12:40:52.606Z,0.90
2019-04-20T12:41:57.887Z,0.90
2019-04-20T12:42:53.395Z,0.80
2019-04-20T12:43:52.383Z,0.80
2019-04-20T12:44:53.407Z,0.90
2019-04-20T12:45:53.703Z,1.00
2019-04-20T12:46:52.349Z,0.90
2019-04-20T12:47:53.397Z,0.80
2019-04-20T12:48:53.525Z,0.80
2019-04-20T12:49:53.692Z,0.70
2019-04-20T12:50:53.298Z,0.80
2019-04-20T12:51:58.014Z,0.80
2019-04-20T12:52:54.632Z,0.90
2019-04-20T12:53:52.811Z,0.80
2019-04-20T12:54:52.565Z,0.80
2019-04-20T12:56:02.422Z,1.00
2019-04-20T12:56:52.990Z,0.90
2019-04-20T12:57:52.563Z,0.80
2019-04-20T12:58:53.528Z,0.90
2019-04-20T12:59:52.487Z,0.90
2019-04-20T13:00:52.382Z,0.80
2019-04-20T13:01:53.322Z,0.70
2019-04-20T13:02:53.448Z,1.00
2019-04-20T13:03:53.228Z,0.90
2019-04-20T13:04:53.403Z,0.80
2019-04-20T13:05:52.132Z,0.80
2019-04-20T13:06:55.100Z,0.90
2019-04-20T13:07:56.430Z,0.90
2019-04-20T13:08:56.883Z,0.90
2019-04-20T13:09:53.086Z,0.90
2019-04-20T13:10:52.781Z,1.00
2019-04-20T13:11:57.863Z,0.80
2019-04-20T13:12:54.325Z,0.80
2019-04-20T13:13:52.517Z,0.80
2019-04-20T13:14:52.678Z,0.80
2019-04-20T13:15:52.181Z,0.80
2019-04-20T13:16:53.411Z,0.80
2019-04-20T13:17:52.874Z,0.80
2019-04-20T13:18:53.029Z,0.80
2019-04-20T13:19:53.273Z,0.80
2019-04-20T13:20:56.140Z,0.80
2019-04-20T13:21:52.951Z,0.90
2019-04-20T13:22:52.944Z,0.90
2019-04-20T13:23:53.064Z,0.80
2019-04-20T13:24:52.835Z,0.80
2019-04-20T13:25:52.946Z,0.80
2019-04-20T13:27:02.861Z,0.80
2019-04-20T13:27:52.740Z,0.80
2019-04-20T13:28:52.940Z,0.80
2019-04-20T13:29:53.024Z,1.30
2019-04-20T13:30:51.855Z,0.90
2019-04-20T13:31:53.738Z,1.10
2019-04-20T13:32:52.006Z,1.00
2019-04-20T13:33:51.822Z,0.90
2019-04-20T13:34:52.052Z,0.80
2019-04-20T13:35:52.345Z,0.90
2019-04-20T13:36:52.478Z,0.80
2019-04-20T13:37:52.023Z,0.90
2019-04-20T13:38:52.204Z,0.80
2019-04-20T13:39:53.055Z,1.00
2019-04-20T13:40:51.732Z,0.80
2019-04-20T13:42:03.476Z,0.80
2019-04-20T13:42:53.927Z,0.80
2019-04-20T13:43:54.264Z,0.80
2019-04-20T13:44:52.809Z,0.80
2019-04-20T13:45:53.063Z,0.80
2019-04-20T13:46:52.230Z,0.80
2019-04-20T13:47:52.790Z,0.90
2019-04-20T13:48:53.084Z,0.90
2019-04-20T13:49:52.560Z,0.80